sensor_id;sensor_type;location;lat;lon;timestamp;P1;durP1;ratioP1;P2;durP2;ratioP2
6840;SDS011;3458;53.678;14.080;2023-08-07T00:00:33;6.90;;;2.40;;
6840;SDS011;3458;53.678;14.080;2023-08-07T00:02:58;3.30;;;1.80;;
6840;SDS011;3458;53.678;14.080;2023-08-07T00:05:24;3.43;;;1.60;;
6840;SDS011;3458;53.678;14.080;2023-08-07T00:07:49;3.50;;;2.00;;
6840;SDS011;3458;53.678;14.080;2023-08-07T00:10:15;5.20;;;1.97;;
6840;SDS011;3458;53.678;14.080;2023-08-07T00:12:40;4.87;;;1.97;;
6840;SDS011;3458;53.678;14.080;2023-08-07T00:15:06;2.37;;;2.17;;
6840;SDS011;3458;53.678;14.080;2023-08-07T00:17:32;2.00;;;1.63;;
6840;SDS011;3458;53.678;14.080;2023-08-07T00:19:57;3.43;;;2.27;;
6840;SDS011;3458;53.678;14.080;2023-08-07T00:22:23;3.60;;;1.90;;
6840;SDS011;3458;53.678;14.080;2023-08-07T00:24:50;7.00;;;2.30;;
6840;SDS011;3458;53.678;14.080;2023-08-07T00:27:15;2.80;;;2.27;;
6840;SDS011;3458;53.678;14.080;2023-08-07T00:29:41;2.60;;;1.80;;
6840;SDS011;3458;53.678;14.080;2023-08-07T00:32:07;4.10;;;1.90;;
6840;SDS011;3458;53.678;14.080;2023-08-07T00:34:33;8.33;;;2.80;;
6840;SDS011;3458;53.678;14.080;2023-08-07T00:36:59;3.43;;;2.00;;
6840;SDS011;3458;53.678;14.080;2023-08-07T00:39:24;4.30;;;2.40;;
6840;SDS011;3458;53.678;14.080;2023-08-07T00:41:50;2.13;;;1.93;;
6840;SDS011;3458;53.678;14.080;2023-08-07T00:44:15;3.00;;;2.03;;
6840;SDS011;3458;53.678;14.080;2023-08-07T00:46:41;3.30;;;1.77;;
6840;SDS011;3458;53.678;14.080;2023-08-07T00:49:07;3.33;;;1.80;;
6840;SDS011;3458;53.678;14.080;2023-08-07T00:51:35;8.30;;;1.83;;
6840;SDS011;3458;53.678;14.080;2023-08-07T00:54:02;4.43;;;2.30;;
6840;SDS011;3458;53.678;14.080;2023-08-07T00:56:29;3.50;;;1.83;;
6840;SDS011;3458;53.678;14.080;2023-08-07T00:58:55;3.50;;;2.20;;
6840;SDS011;3458;53.678;14.080;2023-08-07T01:01:20;2.60;;;1.80;;
6840;SDS011;3458;53.678;14.080;2023-08-07T01:03:46;3.87;;;1.50;;
6840;SDS011;3458;53.678;14.080;2023-08-07T01:06:11;2.20;;;1.80;;
6840;SDS011;3458;53.678;14.080;2023-08-07T01:08:37;3.30;;;2.13;;
6840;SDS011;3458;53.678;14.080;2023-08-07T01:11:07;3.93;;;1.90;;
6840;SDS011;3458;53.678;14.080;2023-08-07T01:13:50;2.50;;;1.87;;
6840;SDS011;3458;53.678;14.080;2023-08-07T01:16:28;2.90;;;2.17;;
6840;SDS011;3458;53.678;14.080;2023-08-07T01:19:00;3.20;;;1.83;;
6840;SDS011;3458;53.678;14.080;2023-08-07T01:21:27;2.90;;;2.10;;
6840;SDS011;3458;53.678;14.080;2023-08-07T01:23:53;5.47;;;1.97;;
6840;SDS011;3458;53.678;14.080;2023-08-07T01:26:19;4.50;;;2.17;;
6840;SDS011;3458;53.678;14.080;2023-08-07T01:28:58;6.60;;;2.40;;
6840;SDS011;3458;53.678;14.080;2023-08-07T01:31:39;2.37;;;1.70;;
6840;SDS011;3458;53.678;14.080;2023-08-07T01:34:07;3.43;;;1.70;;
6840;SDS011;3458;53.678;14.080;2023-08-07T01:36:35;2.43;;;1.60;;
6840;SDS011;3458;53.678;14.080;2023-08-07T01:39:04;7.53;;;2.03;;
6840;SDS011;3458;53.678;14.080;2023-08-07T01:41:31;6.07;;;2.70;;
6840;SDS011;3458;53.678;14.080;2023-08-07T01:43:58;3.00;;;1.80;;
6840;SDS011;3458;53.678;14.080;2023-08-07T01:46:24;2.50;;;1.80;;
6840;SDS011;3458;53.678;14.080;2023-08-07T01:48:49;3.93;;;2.10;;
6840;SDS011;3458;53.678;14.080;2023-08-07T01:51:15;3.93;;;1.80;;
6840;SDS011;3458;53.678;14.080;2023-08-07T01:53:40;5.20;;;1.60;;
6840;SDS011;3458;53.678;14.080;2023-08-07T01:56:06;9.10;;;2.00;;
6840;SDS011;3458;53.678;14.080;2023-08-07T01:58:32;10.00;;;2.03;;
6840;SDS011;3458;53.678;14.080;2023-08-07T02:00:57;6.60;;;2.30;;
6840;SDS011;3458;53.678;14.080;2023-08-07T02:03:22;3.17;;;1.67;;
6840;SDS011;3458;53.678;14.080;2023-08-07T02:05:48;2.20;;;1.60;;
6840;SDS011;3458;53.678;14.080;2023-08-07T02:08:14;1.90;;;1.80;;
6840;SDS011;3458;53.678;14.080;2023-08-07T02:10:39;4.10;;;1.60;;
6840;SDS011;3458;53.678;14.080;2023-08-07T02:13:05;7.23;;;2.43;;
6840;SDS011;3458;53.678;14.080;2023-08-07T02:15:30;2.07;;;1.60;;
6840;SDS011;3458;53.678;14.080;2023-08-07T02:17:56;6.40;;;2.00;;
6840;SDS011;3458;53.678;14.080;2023-08-07T02:20:21;2.40;;;2.20;;
6840;SDS011;3458;53.678;14.080;2023-08-07T02:22:47;2.53;;;2.03;;
6840;SDS011;3458;53.678;14.080;2023-08-07T02:25:12;3.87;;;2.20;;
6840;SDS011;3458;53.678;14.080;2023-08-07T02:27:38;4.03;;;2.77;;
6840;SDS011;3458;53.678;14.080;2023-08-07T02:30:03;6.40;;;2.53;;
6840;SDS011;3458;53.678;14.080;2023-08-07T02:32:30;6.10;;;1.87;;
6840;SDS011;3458;53.678;14.080;2023-08-07T02:34:55;7.53;;;2.23;;
6840;SDS011;3458;53.678;14.080;2023-08-07T02:37:21;4.50;;;2.20;;
6840;SDS011;3458;53.678;14.080;2023-08-07T02:39:46;4.60;;;2.47;;
6840;SDS011;3458;53.678;14.080;2023-08-07T02:42:12;5.03;;;2.90;;
6840;SDS011;3458;53.678;14.080;2023-08-07T02:44:37;4.43;;;2.03;;
6840;SDS011;3458;53.678;14.080;2023-08-07T02:47:03;3.37;;;2.10;;
6840;SDS011;3458;53.678;14.080;2023-08-07T02:49:29;4.93;;;2.00;;
6840;SDS011;3458;53.678;14.080;2023-08-07T02:51:54;6.40;;;2.10;;
6840;SDS011;3458;53.678;14.080;2023-08-07T02:54:20;4.60;;;2.30;;
6840;SDS011;3458;53.678;14.080;2023-08-07T02:56:45;6.93;;;2.20;;
6840;SDS011;3458;53.678;14.080;2023-08-07T02:59:11;15.40;;;2.87;;
6840;SDS011;3458;53.678;14.080;2023-08-07T03:01:36;5.40;;;1.80;;
6840;SDS011;3458;53.678;14.080;2023-08-07T03:04:02;2.07;;;1.97;;
6840;SDS011;3458;53.678;14.080;2023-08-07T03:06:27;4.60;;;2.13;;
6840;SDS011;3458;53.678;14.080;2023-08-07T03:08:53;6.00;;;2.60;;
6840;SDS011;3458;53.678;14.080;2023-08-07T03:11:18;3.27;;;2.13;;
6840;SDS011;3458;53.678;14.080;2023-08-07T03:13:44;18.07;;;2.43;;
6840;SDS011;3458;53.678;14.080;2023-08-07T03:16:09;3.00;;;1.80;;
6840;SDS011;3458;53.678;14.080;2023-08-07T03:18:35;6.10;;;2.30;;
6840;SDS011;3458;53.678;14.080;2023-08-07T03:21:00;1.87;;;1.70;;
6840;SDS011;3458;53.678;14.080;2023-08-07T03:23:26;3.07;;;1.77;;
6840;SDS011;3458;53.678;14.080;2023-08-07T03:26:02;4.13;;;2.03;;
6840;SDS011;3458;53.678;14.080;2023-08-07T03:28:34;6.73;;;2.33;;
6840;SDS011;3458;53.678;14.080;2023-08-07T03:31:00;3.07;;;2.30;;
6840;SDS011;3458;53.678;14.080;2023-08-07T03:33:25;2.30;;;1.90;;
6840;SDS011;3458;53.678;14.080;2023-08-07T03:35:51;7.67;;;1.97;;
6840;SDS011;3458;53.678;14.080;2023-08-07T03:38:17;4.07;;;2.43;;
6840;SDS011;3458;53.678;14.080;2023-08-07T03:40:42;4.20;;;2.40;;
6840;SDS011;3458;53.678;14.080;2023-08-07T03:43:08;5.83;;;2.27;;
6840;SDS011;3458;53.678;14.080;2023-08-07T03:45:33;2.97;;;2.37;;
6840;SDS011;3458;53.678;14.080;2023-08-07T03:47:59;2.20;;;2.00;;
6840;SDS011;3458;53.678;14.080;2023-08-07T03:50:24;6.00;;;2.13;;
6840;SDS011;3458;53.678;14.080;2023-08-07T03:52:50;10.23;;;2.90;;
6840;SDS011;3458;53.678;14.080;2023-08-07T03:55:15;5.43;;;2.30;;
6840;SDS011;3458;53.678;14.080;2023-08-07T03:57:41;5.80;;;2.10;;
6840;SDS011;3458;53.678;14.080;2023-08-07T04:00:07;3.90;;;1.90;;
6840;SDS011;3458;53.678;14.080;2023-08-07T04:02:33;3.43;;;1.90;;
6840;SDS011;3458;53.678;14.080;2023-08-07T04:04:59;3.30;;;2.20;;
6840;SDS011;3458;53.678;14.080;2023-08-07T04:07:24;6.43;;;2.70;;
6840;SDS011;3458;53.678;14.080;2023-08-07T04:09:50;11.33;;;2.30;;
6840;SDS011;3458;53.678;14.080;2023-08-07T04:12:15;5.60;;;2.20;;
6840;SDS011;3458;53.678;14.080;2023-08-07T04:14:41;2.87;;;1.80;;
6840;SDS011;3458;53.678;14.080;2023-08-07T04:17:06;7.00;;;2.20;;
6840;SDS011;3458;53.678;14.080;2023-08-07T04:19:32;4.20;;;2.47;;
6840;SDS011;3458;53.678;14.080;2023-08-07T04:21:57;2.00;;;1.80;;
6840;SDS011;3458;53.678;14.080;2023-08-07T04:24:23;6.00;;;2.97;;
6840;SDS011;3458;53.678;14.080;2023-08-07T04:26:48;7.20;;;2.03;;
6840;SDS011;3458;53.678;14.080;2023-08-07T04:29:14;3.80;;;2.30;;
6840;SDS011;3458;53.678;14.080;2023-08-07T04:31:39;8.83;;;2.90;;
6840;SDS011;3458;53.678;14.080;2023-08-07T04:34:05;4.87;;;1.90;;
6840;SDS011;3458;53.678;14.080;2023-08-07T04:36:30;5.10;;;1.90;;
6840;SDS011;3458;53.678;14.080;2023-08-07T04:38:56;3.90;;;2.27;;
6840;SDS011;3458;53.678;14.080;2023-08-07T04:41:22;5.13;;;2.30;;
6840;SDS011;3458;53.678;14.080;2023-08-07T04:43:48;6.63;;;2.10;;
6840;SDS011;3458;53.678;14.080;2023-08-07T04:46:13;3.83;;;1.90;;
6840;SDS011;3458;53.678;14.080;2023-08-07T04:48:39;3.23;;;2.30;;
6840;SDS011;3458;53.678;14.080;2023-08-07T04:51:05;3.10;;;1.90;;
6840;SDS011;3458;53.678;14.080;2023-08-07T04:53:30;3.67;;;1.97;;
6840;SDS011;3458;53.678;14.080;2023-08-07T04:55:56;6.27;;;2.40;;
6840;SDS011;3458;53.678;14.080;2023-08-07T04:58:22;2.73;;;1.90;;
6840;SDS011;3458;53.678;14.080;2023-08-07T05:00:47;3.33;;;2.03;;
6840;SDS011;3458;53.678;14.080;2023-08-07T05:03:13;4.10;;;2.07;;
6840;SDS011;3458;53.678;14.080;2023-08-07T05:05:40;3.77;;;2.03;;
6840;SDS011;3458;53.678;14.080;2023-08-07T05:08:05;12.73;;;2.40;;
6840;SDS011;3458;53.678;14.080;2023-08-07T05:10:31;3.07;;;2.20;;
6840;SDS011;3458;53.678;14.080;2023-08-07T05:12:56;9.10;;;2.30;;
6840;SDS011;3458;53.678;14.080;2023-08-07T05:15:22;4.47;;;2.30;;
6840;SDS011;3458;53.678;14.080;2023-08-07T05:17:49;7.77;;;2.20;;
6840;SDS011;3458;53.678;14.080;2023-08-07T05:20:16;4.60;;;2.20;;
6840;SDS011;3458;53.678;14.080;2023-08-07T05:22:42;2.53;;;1.80;;
6840;SDS011;3458;53.678;14.080;2023-08-07T05:25:08;5.20;;;3.00;;
6840;SDS011;3458;53.678;14.080;2023-08-07T05:27:34;2.20;;;1.80;;
6840;SDS011;3458;53.678;14.080;2023-08-07T05:30:00;2.93;;;1.80;;
6840;SDS011;3458;53.678;14.080;2023-08-07T05:32:26;3.80;;;1.77;;
6840;SDS011;3458;53.678;14.080;2023-08-07T05:34:53;3.40;;;1.87;;
6840;SDS011;3458;53.678;14.080;2023-08-07T05:37:21;3.20;;;2.30;;
6840;SDS011;3458;53.678;14.080;2023-08-07T05:39:46;6.57;;;1.90;;
6840;SDS011;3458;53.678;14.080;2023-08-07T05:42:12;2.60;;;1.77;;
6840;SDS011;3458;53.678;14.080;2023-08-07T05:44:38;2.50;;;1.93;;
6840;SDS011;3458;53.678;14.080;2023-08-07T05:47:03;2.10;;;1.93;;
6840;SDS011;3458;53.678;14.080;2023-08-07T05:49:29;3.40;;;2.43;;
6840;SDS011;3458;53.678;14.080;2023-08-07T05:51:55;6.40;;;1.73;;
6840;SDS011;3458;53.678;14.080;2023-08-07T05:54:20;7.57;;;1.97;;
6840;SDS011;3458;53.678;14.080;2023-08-07T05:56:46;4.30;;;2.10;;
6840;SDS011;3458;53.678;14.080;2023-08-07T05:59:11;4.57;;;2.30;;
6840;SDS011;3458;53.678;14.080;2023-08-07T06:01:37;1.93;;;1.73;;
6840;SDS011;3458;53.678;14.080;2023-08-07T06:04:02;2.00;;;1.90;;
6840;SDS011;3458;53.678;14.080;2023-08-07T06:06:28;4.60;;;2.83;;
6840;SDS011;3458;53.678;14.080;2023-08-07T06:08:54;5.00;;;2.20;;
6840;SDS011;3458;53.678;14.080;2023-08-07T06:11:20;3.10;;;2.30;;
6840;SDS011;3458;53.678;14.080;2023-08-07T06:13:46;5.77;;;2.67;;
6840;SDS011;3458;53.678;14.080;2023-08-07T06:16:11;4.17;;;2.70;;
6840;SDS011;3458;53.678;14.080;2023-08-07T06:18:37;4.00;;;2.37;;
6840;SDS011;3458;53.678;14.080;2023-08-07T06:21:02;3.73;;;2.63;;
6840;SDS011;3458;53.678;14.080;2023-08-07T06:23:31;2.80;;;1.93;;
6840;SDS011;3458;53.678;14.080;2023-08-07T06:25:57;3.00;;;2.63;;
6840;SDS011;3458;53.678;14.080;2023-08-07T06:28:22;2.00;;;1.80;;
6840;SDS011;3458;53.678;14.080;2023-08-07T06:30:48;2.60;;;2.17;;
6840;SDS011;3458;53.678;14.080;2023-08-07T06:33:13;2.90;;;2.50;;
6840;SDS011;3458;53.678;14.080;2023-08-07T06:35:39;7.40;;;2.87;;
6840;SDS011;3458;53.678;14.080;2023-08-07T06:38:05;4.50;;;2.57;;
6840;SDS011;3458;53.678;14.080;2023-08-07T06:40:31;3.37;;;2.17;;
6840;SDS011;3458;53.678;14.080;2023-08-07T06:42:56;3.17;;;2.00;;
6840;SDS011;3458;53.678;14.080;2023-08-07T06:45:22;1.90;;;1.80;;
6840;SDS011;3458;53.678;14.080;2023-08-07T06:47:47;2.20;;;1.70;;
6840;SDS011;3458;53.678;14.080;2023-08-07T06:50:13;2.93;;;2.10;;
6840;SDS011;3458;53.678;14.080;2023-08-07T06:52:39;2.43;;;2.23;;
6840;SDS011;3458;53.678;14.080;2023-08-07T06:55:05;4.67;;;2.27;;
6840;SDS011;3458;53.678;14.080;2023-08-07T06:57:31;4.60;;;2.30;;
6840;SDS011;3458;53.678;14.080;2023-08-07T06:59:57;9.23;;;2.60;;
6840;SDS011;3458;53.678;14.080;2023-08-07T07:02:22;5.70;;;3.60;;
6840;SDS011;3458;53.678;14.080;2023-08-07T07:04:48;6.03;;;3.00;;
6840;SDS011;3458;53.678;14.080;2023-08-07T07:07:13;10.17;;;3.53;;
6840;SDS011;3458;53.678;14.080;2023-08-07T07:09:39;7.83;;;2.60;;
6840;SDS011;3458;53.678;14.080;2023-08-07T07:12:05;12.50;;;5.40;;
6840;SDS011;3458;53.678;14.080;2023-08-07T07:14:31;39.33;;;16.60;;
6840;SDS011;3458;53.678;14.080;2023-08-07T07:16:57;16.40;;;7.43;;
6840;SDS011;3458;53.678;14.080;2023-08-07T07:19:23;32.00;;;13.97;;
6840;SDS011;3458;53.678;14.080;2023-08-07T07:21:48;78.10;;;25.07;;
6840;SDS011;3458;53.678;14.080;2023-08-07T07:24:14;34.77;;;13.70;;
6840;SDS011;3458;53.678;14.080;2023-08-07T07:26:39;95.50;;;28.10;;
6840;SDS011;3458;53.678;14.080;2023-08-07T07:29:05;40.83;;;12.80;;
6840;SDS011;3458;53.678;14.080;2023-08-07T07:31:31;51.90;;;15.70;;
6840;SDS011;3458;53.678;14.080;2023-08-07T07:33:57;12.60;;;4.60;;
6840;SDS011;3458;53.678;14.080;2023-08-07T07:36:23;10.77;;;5.40;;
6840;SDS011;3458;53.678;14.080;2023-08-07T07:38:48;22.97;;;11.17;;
6840;SDS011;3458;53.678;14.080;2023-08-07T07:41:14;8.20;;;5.23;;
6840;SDS011;3458;53.678;14.080;2023-08-07T07:43:40;8.33;;;4.50;;
6840;SDS011;3458;53.678;14.080;2023-08-07T07:46:06;4.77;;;4.20;;
6840;SDS011;3458;53.678;14.080;2023-08-07T07:48:31;5.70;;;3.40;;
6840;SDS011;3458;53.678;14.080;2023-08-07T07:51:00;13.20;;;6.30;;
6840;SDS011;3458;53.678;14.080;2023-08-07T07:53:27;6.50;;;3.83;;
6840;SDS011;3458;53.678;14.080;2023-08-07T07:55:53;3.67;;;3.27;;
6840;SDS011;3458;53.678;14.080;2023-08-07T07:58:19;2.97;;;2.50;;
6840;SDS011;3458;53.678;14.080;2023-08-07T08:00:45;3.80;;;2.07;;
6840;SDS011;3458;53.678;14.080;2023-08-07T08:03:11;10.83;;;2.83;;
6840;SDS011;3458;53.678;14.080;2023-08-07T08:05:37;5.07;;;3.13;;
6840;SDS011;3458;53.678;14.080;2023-08-07T08:08:03;10.07;;;3.53;;
6840;SDS011;3458;53.678;14.080;2023-08-07T08:10:29;5.50;;;2.70;;
6840;SDS011;3458;53.678;14.080;2023-08-07T08:12:54;5.10;;;2.87;;
6840;SDS011;3458;53.678;14.080;2023-08-07T08:15:20;5.33;;;3.10;;
6840;SDS011;3458;53.678;14.080;2023-08-07T08:17:46;4.80;;;2.40;;
6840;SDS011;3458;53.678;14.080;2023-08-07T08:20:12;5.33;;;2.73;;
6840;SDS011;3458;53.678;14.080;2023-08-07T08:22:40;5.73;;;2.67;;
6840;SDS011;3458;53.678;14.080;2023-08-07T08:25:06;4.70;;;2.47;;
6840;SDS011;3458;53.678;14.080;2023-08-07T08:27:32;4.27;;;2.83;;
6840;SDS011;3458;53.678;14.080;2023-08-07T08:29:57;10.60;;;2.73;;
6840;SDS011;3458;53.678;14.080;2023-08-07T08:32:23;7.73;;;3.20;;
6840;SDS011;3458;53.678;14.080;2023-08-07T08:34:48;9.27;;;4.17;;
6840;SDS011;3458;53.678;14.080;2023-08-07T08:37:17;4.10;;;3.07;;
6840;SDS011;3458;53.678;14.080;2023-08-07T08:39:42;11.27;;;2.90;;
6840;SDS011;3458;53.678;14.080;2023-08-07T08:42:08;6.50;;;3.33;;
6840;SDS011;3458;53.678;14.080;2023-08-07T08:44:38;5.27;;;2.87;;
6840;SDS011;3458;53.678;14.080;2023-08-07T08:47:04;6.23;;;2.80;;
6840;SDS011;3458;53.678;14.080;2023-08-07T08:49:32;7.60;;;3.00;;
6840;SDS011;3458;53.678;14.080;2023-08-07T08:52:01;8.43;;;3.20;;
6840;SDS011;3458;53.678;14.080;2023-08-07T08:54:27;15.60;;;3.23;;
6840;SDS011;3458;53.678;14.080;2023-08-07T08:56:53;5.60;;;3.20;;
6840;SDS011;3458;53.678;14.080;2023-08-07T08:59:21;5.70;;;3.27;;
6840;SDS011;3458;53.678;14.080;2023-08-07T09:01:46;7.13;;;3.40;;
6840;SDS011;3458;53.678;14.080;2023-08-07T09:04:15;6.60;;;3.43;;
6840;SDS011;3458;53.678;14.080;2023-08-07T09:06:42;3.93;;;2.57;;
6840;SDS011;3458;53.678;14.080;2023-08-07T09:09:08;7.83;;;3.30;;
6840;SDS011;3458;53.678;14.080;2023-08-07T09:11:35;5.10;;;3.30;;
6840;SDS011;3458;53.678;14.080;2023-08-07T09:14:01;8.83;;;4.27;;
6840;SDS011;3458;53.678;14.080;2023-08-07T09:16:28;6.70;;;3.47;;
6840;SDS011;3458;53.678;14.080;2023-08-07T09:18:55;5.60;;;3.17;;
6840;SDS011;3458;53.678;14.080;2023-08-07T09:21:21;8.90;;;3.30;;
6840;SDS011;3458;53.678;14.080;2023-08-07T09:23:46;9.13;;;2.90;;
6840;SDS011;3458;53.678;14.080;2023-08-07T09:26:12;8.80;;;3.00;;
6840;SDS011;3458;53.678;14.080;2023-08-07T09:28:37;4.83;;;3.10;;
6840;SDS011;3458;53.678;14.080;2023-08-07T09:31:05;7.43;;;2.70;;
6840;SDS011;3458;53.678;14.080;2023-08-07T09:33:31;10.63;;;3.13;;
6840;SDS011;3458;53.678;14.080;2023-08-07T09:35:57;15.10;;;2.90;;
6840;SDS011;3458;53.678;14.080;2023-08-07T09:38:24;8.13;;;3.23;;
6840;SDS011;3458;53.678;14.080;2023-08-07T09:40:52;8.83;;;3.00;;
6840;SDS011;3458;53.678;14.080;2023-08-07T09:43:21;11.13;;;3.60;;
6840;SDS011;3458;53.678;14.080;2023-08-07T09:45:48;4.00;;;2.40;;
6840;SDS011;3458;53.678;14.080;2023-08-07T09:48:22;7.27;;;2.73;;
6840;SDS011;3458;53.678;14.080;2023-08-07T09:50:50;6.93;;;3.90;;
6840;SDS011;3458;53.678;14.080;2023-08-07T09:53:15;11.80;;;3.40;;
6840;SDS011;3458;53.678;14.080;2023-08-07T09:55:41;6.27;;;2.60;;
6840;SDS011;3458;53.678;14.080;2023-08-07T09:58:08;5.80;;;3.33;;
6840;SDS011;3458;53.678;14.080;2023-08-07T10:00:36;14.30;;;3.77;;
6840;SDS011;3458;53.678;14.080;2023-08-07T10:03:02;13.23;;;2.97;;
6840;SDS011;3458;53.678;14.080;2023-08-07T10:05:29;7.27;;;3.00;;
6840;SDS011;3458;53.678;14.080;2023-08-07T10:07:55;5.67;;;2.80;;
6840;SDS011;3458;53.678;14.080;2023-08-07T10:10:22;9.90;;;3.17;;
6840;SDS011;3458;53.678;14.080;2023-08-07T10:12:50;6.10;;;2.60;;
6840;SDS011;3458;53.678;14.080;2023-08-07T10:15:16;11.03;;;3.57;;
6840;SDS011;3458;53.678;14.080;2023-08-07T10:17:43;6.23;;;2.80;;
6840;SDS011;3458;53.678;14.080;2023-08-07T10:20:08;7.97;;;2.43;;
6840;SDS011;3458;53.678;14.080;2023-08-07T10:22:34;10.50;;;3.17;;
6840;SDS011;3458;53.678;14.080;2023-08-07T10:25:03;10.50;;;3.50;;
6840;SDS011;3458;53.678;14.080;2023-08-07T10:27:32;13.73;;;3.30;;
6840;SDS011;3458;53.678;14.080;2023-08-07T10:30:02;10.67;;;2.90;;
6840;SDS011;3458;53.678;14.080;2023-08-07T10:32:31;13.53;;;2.90;;
6840;SDS011;3458;53.678;14.080;2023-08-07T10:34:57;16.07;;;3.37;;
6840;SDS011;3458;53.678;14.080;2023-08-07T10:37:37;16.73;;;4.40;;
6840;SDS011;3458;53.678;14.080;2023-08-07T10:40:08;12.50;;;2.80;;
6840;SDS011;3458;53.678;14.080;2023-08-07T10:45:33;7.67;;;2.37;;
6840;SDS011;3458;53.678;14.080;2023-08-07T10:50:56;9.83;;;3.47;;
6840;SDS011;3458;53.678;14.080;2023-08-07T10:53:29;12.67;;;2.57;;
6840;SDS011;3458;53.678;14.080;2023-08-07T10:55:56;7.93;;;2.80;;
6840;SDS011;3458;53.678;14.080;2023-08-07T10:58:30;10.73;;;3.13;;
6840;SDS011;3458;53.678;14.080;2023-08-07T11:01:16;6.03;;;2.77;;
6840;SDS011;3458;53.678;14.080;2023-08-07T11:03:57;9.63;;;3.90;;
6840;SDS011;3458;53.678;14.080;2023-08-07T11:06:25;13.20;;;3.13;;
6840;SDS011;3458;53.678;14.080;2023-08-07T11:08:55;9.33;;;3.97;;
6840;SDS011;3458;53.678;14.080;2023-08-07T11:11:21;12.37;;;2.77;;
6840;SDS011;3458;53.678;14.080;2023-08-07T11:13:46;10.17;;;2.83;;
6840;SDS011;3458;53.678;14.080;2023-08-07T11:16:12;13.33;;;2.90;;
6840;SDS011;3458;53.678;14.080;2023-08-07T11:18:38;17.30;;;3.43;;
6840;SDS011;3458;53.678;14.080;2023-08-07T11:21:07;10.50;;;2.40;;
6840;SDS011;3458;53.678;14.080;2023-08-07T11:23:35;12.00;;;4.07;;
6840;SDS011;3458;53.678;14.080;2023-08-07T11:26:01;13.60;;;3.00;;
6840;SDS011;3458;53.678;14.080;2023-08-07T11:28:28;10.27;;;3.27;;
6840;SDS011;3458;53.678;14.080;2023-08-07T11:30:54;9.13;;;2.93;;
6840;SDS011;3458;53.678;14.080;2023-08-07T11:33:21;10.50;;;2.87;;
6840;SDS011;3458;53.678;14.080;2023-08-07T11:35:48;13.50;;;3.60;;
6840;SDS011;3458;53.678;14.080;2023-08-07T11:38:28;9.63;;;3.40;;
6840;SDS011;3458;53.678;14.080;2023-08-07T11:40:58;14.83;;;3.80;;
6840;SDS011;3458;53.678;14.080;2023-08-07T11:43:28;12.50;;;3.33;;
6840;SDS011;3458;53.678;14.080;2023-08-07T11:45:55;15.37;;;4.13;;
6840;SDS011;3458;53.678;14.080;2023-08-07T11:48:29;10.50;;;2.83;;
6840;SDS011;3458;53.678;14.080;2023-08-07T11:50:56;10.23;;;2.80;;
6840;SDS011;3458;53.678;14.080;2023-08-07T11:53:23;12.93;;;3.40;;
6840;SDS011;3458;53.678;14.080;2023-08-07T11:55:54;9.73;;;3.53;;
6840;SDS011;3458;53.678;14.080;2023-08-07T11:58:21;11.67;;;2.97;;
6840;SDS011;3458;53.678;14.080;2023-08-07T12:00:47;13.03;;;4.87;;
6840;SDS011;3458;53.678;14.080;2023-08-07T12:03:25;12.60;;;3.17;;
6840;SDS011;3458;53.678;14.080;2023-08-07T12:05:53;9.97;;;3.50;;
6840;SDS011;3458;53.678;14.080;2023-08-07T12:08:20;13.83;;;3.67;;
6840;SDS011;3458;53.678;14.080;2023-08-07T12:10:49;16.87;;;3.00;;
6840;SDS011;3458;53.678;14.080;2023-08-07T12:13:16;14.47;;;3.70;;
6840;SDS011;3458;53.678;14.080;2023-08-07T12:15:45;10.33;;;2.90;;
6840;SDS011;3458;53.678;14.080;2023-08-07T12:18:10;10.97;;;3.50;;
6840;SDS011;3458;53.678;14.080;2023-08-07T12:20:38;12.17;;;3.10;;
6840;SDS011;3458;53.678;14.080;2023-08-07T12:23:03;8.70;;;3.40;;
6840;SDS011;3458;53.678;14.080;2023-08-07T12:25:29;18.63;;;3.30;;
6840;SDS011;3458;53.678;14.080;2023-08-07T12:27:54;9.20;;;3.20;;
6840;SDS011;3458;53.678;14.080;2023-08-07T12:30:20;12.10;;;3.00;;
6840;SDS011;3458;53.678;14.080;2023-08-07T12:32:45;10.93;;;2.93;;
6840;SDS011;3458;53.678;14.080;2023-08-07T12:35:10;23.00;;;3.67;;
6840;SDS011;3458;53.678;14.080;2023-08-07T12:37:36;23.50;;;3.57;;
6840;SDS011;3458;53.678;14.080;2023-08-07T12:40:01;7.50;;;2.77;;
6840;SDS011;3458;53.678;14.080;2023-08-07T12:42:28;13.23;;;3.70;;
6840;SDS011;3458;53.678;14.080;2023-08-07T12:44:54;10.80;;;3.70;;
6840;SDS011;3458;53.678;14.080;2023-08-07T12:47:20;15.57;;;3.20;;
6840;SDS011;3458;53.678;14.080;2023-08-07T12:49:45;11.07;;;3.07;;
6840;SDS011;3458;53.678;14.080;2023-08-07T12:52:12;11.00;;;3.53;;
6840;SDS011;3458;53.678;14.080;2023-08-07T12:54:38;15.60;;;3.80;;
6840;SDS011;3458;53.678;14.080;2023-08-07T12:57:03;18.20;;;3.50;;
6840;SDS011;3458;53.678;14.080;2023-08-07T12:59:29;16.93;;;3.00;;
6840;SDS011;3458;53.678;14.080;2023-08-07T13:01:54;9.10;;;2.93;;
6840;SDS011;3458;53.678;14.080;2023-08-07T13:04:20;8.43;;;3.37;;
6840;SDS011;3458;53.678;14.080;2023-08-07T13:06:45;8.93;;;3.03;;
6840;SDS011;3458;53.678;14.080;2023-08-07T13:09:11;12.43;;;3.50;;
6840;SDS011;3458;53.678;14.080;2023-08-07T13:11:36;21.10;;;3.33;;
6840;SDS011;3458;53.678;14.080;2023-08-07T13:14:02;15.00;;;3.80;;
6840;SDS011;3458;53.678;14.080;2023-08-07T13:16:27;10.47;;;3.37;;
6840;SDS011;3458;53.678;14.080;2023-08-07T13:18:53;7.80;;;3.40;;
6840;SDS011;3458;53.678;14.080;2023-08-07T13:21:18;13.80;;;3.97;;
6840;SDS011;3458;53.678;14.080;2023-08-07T13:23:44;9.63;;;3.93;;
6840;SDS011;3458;53.678;14.080;2023-08-07T13:26:09;11.70;;;3.20;;
6840;SDS011;3458;53.678;14.080;2023-08-07T13:28:35;13.77;;;3.20;;
6840;SDS011;3458;53.678;14.080;2023-08-07T13:31:00;9.90;;;3.20;;
6840;SDS011;3458;53.678;14.080;2023-08-07T13:33:26;12.07;;;3.80;;
6840;SDS011;3458;53.678;14.080;2023-08-07T13:35:52;11.30;;;3.20;;
6840;SDS011;3458;53.678;14.080;2023-08-07T13:38:17;12.83;;;3.67;;
6840;SDS011;3458;53.678;14.080;2023-08-07T13:40:43;11.30;;;3.43;;
6840;SDS011;3458;53.678;14.080;2023-08-07T13:43:10;5.97;;;3.10;;
6840;SDS011;3458;53.678;14.080;2023-08-07T13:45:36;5.20;;;3.00;;
6840;SDS011;3458;53.678;14.080;2023-08-07T13:48:02;4.93;;;2.57;;
6840;SDS011;3458;53.678;14.080;2023-08-07T13:50:27;14.43;;;2.67;;
6840;SDS011;3458;53.678;14.080;2023-08-07T13:52:53;15.67;;;3.17;;
6840;SDS011;3458;53.678;14.080;2023-08-07T13:55:18;15.33;;;4.33;;
6840;SDS011;3458;53.678;14.080;2023-08-07T13:57:44;8.47;;;3.27;;
6840;SDS011;3458;53.678;14.080;2023-08-07T14:00:10;15.40;;;2.87;;
6840;SDS011;3458;53.678;14.080;2023-08-07T14:02:36;10.03;;;2.60;;
6840;SDS011;3458;53.678;14.080;2023-08-07T14:05:01;13.23;;;3.23;;
6840;SDS011;3458;53.678;14.080;2023-08-07T14:07:27;13.90;;;3.40;;
6840;SDS011;3458;53.678;14.080;2023-08-07T14:09:53;13.87;;;2.73;;
6840;SDS011;3458;53.678;14.080;2023-08-07T14:12:18;7.93;;;2.50;;
6840;SDS011;3458;53.678;14.080;2023-08-07T14:14:44;7.40;;;3.13;;
6840;SDS011;3458;53.678;14.080;2023-08-07T14:17:09;11.17;;;2.70;;
6840;SDS011;3458;53.678;14.080;2023-08-07T14:19:35;8.53;;;2.70;;
6840;SDS011;3458;53.678;14.080;2023-08-07T14:22:00;13.43;;;3.10;;
6840;SDS011;3458;53.678;14.080;2023-08-07T14:24:26;10.53;;;2.30;;
6840;SDS011;3458;53.678;14.080;2023-08-07T14:26:51;10.20;;;2.40;;
6840;SDS011;3458;53.678;14.080;2023-08-07T14:29:17;9.70;;;2.53;;
6840;SDS011;3458;53.678;14.080;2023-08-07T14:31:42;9.50;;;2.57;;
6840;SDS011;3458;53.678;14.080;2023-08-07T14:34:08;14.07;;;2.80;;
6840;SDS011;3458;53.678;14.080;2023-08-07T14:36:33;8.73;;;2.30;;
6840;SDS011;3458;53.678;14.080;2023-08-07T14:38:59;8.30;;;2.67;;
6840;SDS011;3458;53.678;14.080;2023-08-07T14:41:25;10.07;;;2.90;;
6840;SDS011;3458;53.678;14.080;2023-08-07T14:43:50;6.37;;;2.03;;
6840;SDS011;3458;53.678;14.080;2023-08-07T14:46:19;15.60;;;2.57;;
6840;SDS011;3458;53.678;14.080;2023-08-07T14:48:45;14.50;;;2.30;;
6840;SDS011;3458;53.678;14.080;2023-08-07T14:51:11;7.60;;;2.63;;
6840;SDS011;3458;53.678;14.080;2023-08-07T14:53:37;12.77;;;2.80;;
6840;SDS011;3458;53.678;14.080;2023-08-07T14:56:02;9.27;;;2.30;;
6840;SDS011;3458;53.678;14.080;2023-08-07T14:58:28;8.40;;;2.50;;